sensor_id;sensor_type;location;lat;lon;timestamp;P1;durP1;ratioP1;P2;durP2;ratioP2
17145;SDS011;8688;54.444;18.444;2024-03-29T00:01:51;2.67;;;1.85;;
17145;SDS011;8688;54.444;18.444;2024-03-29T00:04:18;2.88;;;2.00;;
17145;SDS011;8688;54.444;18.444;2024-03-29T00:06:44;2.75;;;2.00;;
17145;SDS011;8688;54.444;18.444;2024-03-29T00:09:11;2.55;;;2.08;;
17145;SDS011;8688;54.444;18.444;2024-03-29T00:11:39;3.70;;;1.83;;
17145;SDS011;8688;54.444;18.444;2024-03-29T00:17:29;4.57;;;2.30;;
17145;SDS011;8688;54.444;18.444;2024-03-29T00:19:56;3.72;;;2.22;;
17145;SDS011;8688;54.444;18.444;2024-03-29T00:22:23;2.25;;;1.77;;
17145;SDS011;8688;54.444;18.444;2024-03-29T00:24:49;3.45;;;1.77;;
17145;SDS011;8688;54.444;18.444;2024-03-29T00:27:16;2.47;;;1.67;;
17145;SDS011;8688;54.444;18.444;2024-03-29T00:29:43;3.65;;;1.60;;
17145;SDS011;8688;54.444;18.444;2024-03-29T00:32:10;3.17;;;1.60;;
17145;SDS011;8688;54.444;18.444;2024-03-29T00:34:39;2.65;;;1.48;;
17145;SDS011;8688;54.444;18.444;2024-03-29T00:37:06;2.72;;;1.75;;
17145;SDS011;8688;54.444;18.444;2024-03-29T00:39:32;2.42;;;1.60;;
17145;SDS011;8688;54.444;18.444;2024-03-29T00:41:59;3.40;;;1.50;;
17145;SDS011;8688;54.444;18.444;2024-03-29T00:44:26;1.98;;;1.40;;
17145;SDS011;8688;54.444;18.444;2024-03-29T00:46:53;3.67;;;1.25;;
17145;SDS011;8688;54.444;18.444;2024-03-29T00:49:20;3.13;;;1.50;;
17145;SDS011;8688;54.444;18.444;2024-03-29T00:51:49;2.58;;;1.58;;
17145;SDS011;8688;54.444;18.444;2024-03-29T00:54:16;2.45;;;1.70;;
17145;SDS011;8688;54.444;18.444;2024-03-29T00:56:43;2.75;;;2.10;;
17145;SDS011;8688;54.444;18.444;2024-03-29T00:59:10;2.70;;;1.92;;
17145;SDS011;8688;54.444;18.444;2024-03-29T01:01:37;2.78;;;1.80;;
17145;SDS011;8688;54.444;18.444;2024-03-29T01:04:05;3.92;;;2.17;;
17145;SDS011;8688;54.444;18.444;2024-03-29T01:06:32;4.00;;;2.15;;
17145;SDS011;8688;54.444;18.444;2024-03-29T01:09:00;3.50;;;2.30;;
17145;SDS011;8688;54.444;18.444;2024-03-29T01:11:27;4.07;;;2.58;;
17145;SDS011;8688;54.444;18.444;2024-03-29T01:13:53;4.75;;;2.30;;
17145;SDS011;8688;54.444;18.444;2024-03-29T01:16:22;3.67;;;2.17;;
17145;SDS011;8688;54.444;18.444;2024-03-29T01:18:49;3.88;;;1.92;;
17145;SDS011;8688;54.444;18.444;2024-03-29T01:21:16;1.83;;;1.35;;
17145;SDS011;8688;54.444;18.444;2024-03-29T01:23:43;3.08;;;1.55;;
17145;SDS011;8688;54.444;18.444;2024-03-29T01:26:12;2.22;;;1.50;;
17145;SDS011;8688;54.444;18.444;2024-03-29T01:28:38;3.28;;;1.40;;
17145;SDS011;8688;54.444;18.444;2024-03-29T01:31:05;1.75;;;0.90;;
17145;SDS011;8688;54.444;18.444;2024-03-29T01:33:32;1.95;;;1.10;;
17145;SDS011;8688;54.444;18.444;2024-03-29T01:35:58;1.15;;;0.70;;
17145;SDS011;8688;54.444;18.444;2024-03-29T01:38:25;0.77;;;0.57;;
17145;SDS011;8688;54.444;18.444;2024-03-29T01:40:52;0.95;;;0.70;;
17145;SDS011;8688;54.444;18.444;2024-03-29T01:43:20;0.80;;;0.65;;
17145;SDS011;8688;54.444;18.444;2024-03-29T01:45:48;1.15;;;0.75;;
17145;SDS011;8688;54.444;18.444;2024-03-29T01:48:20;0.88;;;0.60;;
17145;SDS011;8688;54.444;18.444;2024-03-29T01:50:51;2.63;;;0.70;;
17145;SDS011;8688;54.444;18.444;2024-03-29T01:53:23;1.77;;;0.75;;
17145;SDS011;8688;54.444;18.444;2024-03-29T01:55:52;1.17;;;0.70;;
17145;SDS011;8688;54.444;18.444;2024-03-29T01:58:21;0.88;;;0.60;;
17145;SDS011;8688;54.444;18.444;2024-03-29T02:00:51;1.10;;;0.73;;
17145;SDS011;8688;54.444;18.444;2024-03-29T02:03:21;1.85;;;0.65;;
17145;SDS011;8688;54.444;18.444;2024-03-29T02:05:49;1.20;;;0.77;;
17145;SDS011;8688;54.444;18.444;2024-03-29T02:08:17;1.02;;;0.60;;
17145;SDS011;8688;54.444;18.444;2024-03-29T02:10:46;1.63;;;0.80;;
17145;SDS011;8688;54.444;18.444;2024-03-29T02:13:16;3.97;;;0.80;;
17145;SDS011;8688;54.444;18.444;2024-03-29T02:15:46;2.17;;;0.73;;
17145;SDS011;8688;54.444;18.444;2024-03-29T02:18:14;1.02;;;0.85;;
17145;SDS011;8688;54.444;18.444;2024-03-29T02:20:48;0.90;;;0.77;;
17145;SDS011;8688;54.444;18.444;2024-03-29T02:23:17;0.93;;;0.70;;
17145;SDS011;8688;54.444;18.444;2024-03-29T02:25:48;2.60;;;0.80;;
17145;SDS011;8688;54.444;18.444;2024-03-29T02:28:15;2.33;;;0.75;;
17145;SDS011;8688;54.444;18.444;2024-03-29T02:30:43;1.55;;;0.98;;
17145;SDS011;8688;54.444;18.444;2024-03-29T02:33:11;1.92;;;0.90;;
17145;SDS011;8688;54.444;18.444;2024-03-29T02:35:40;1.00;;;0.85;;
17145;SDS011;8688;54.444;18.444;2024-03-29T02:38:08;0.82;;;0.77;;
17145;SDS011;8688;54.444;18.444;2024-03-29T02:40:35;1.67;;;0.98;;
17145;SDS011;8688;54.444;18.444;2024-03-29T02:43:06;1.60;;;0.80;;
17145;SDS011;8688;54.444;18.444;2024-03-29T02:45:34;2.75;;;0.70;;
17145;SDS011;8688;54.444;18.444;2024-03-29T02:48:01;2.70;;;0.80;;
17145;SDS011;8688;54.444;18.444;2024-03-29T02:50:28;0.80;;;0.70;;
17145;SDS011;8688;54.444;18.444;2024-03-29T02:52:57;0.87;;;0.70;;
17145;SDS011;8688;54.444;18.444;2024-03-29T02:55:24;1.83;;;0.80;;
17145;SDS011;8688;54.444;18.444;2024-03-29T02:57:52;1.63;;;0.70;;
17145;SDS011;8688;54.444;18.444;2024-03-29T03:00:21;2.50;;;0.85;;
17145;SDS011;8688;54.444;18.444;2024-03-29T03:02:49;1.10;;;0.75;;
17145;SDS011;8688;54.444;18.444;2024-03-29T03:05:15;0.90;;;0.70;;
17145;SDS011;8688;54.444;18.444;2024-03-29T03:07:43;3.07;;;1.00;;
17145;SDS011;8688;54.444;18.444;2024-03-29T03:10:29;1.77;;;1.20;;
17145;SDS011;8688;54.444;18.444;2024-03-29T03:13:14;2.57;;;1.03;;
17145;SDS011;8688;54.444;18.444;2024-03-29T03:15:43;2.90;;;1.10;;
17145;SDS011;8688;54.444;18.444;2024-03-29T03:18:10;2.33;;;1.00;;
17145;SDS011;8688;54.444;18.444;2024-03-29T03:20:38;1.83;;;1.10;;
17145;SDS011;8688;54.444;18.444;2024-03-29T03:23:05;1.47;;;0.93;;
17145;SDS011;8688;54.444;18.444;2024-03-29T03:25:33;3.13;;;1.30;;
17145;SDS011;8688;54.444;18.444;2024-03-29T03:28:00;4.50;;;1.17;;
17145;SDS011;8688;54.444;18.444;2024-03-29T03:30:28;1.10;;;0.90;;
17145;SDS011;8688;54.444;18.444;2024-03-29T03:32:56;3.90;;;1.10;;
17145;SDS011;8688;54.444;18.444;2024-03-29T03:35:24;1.27;;;1.00;;
17145;SDS011;8688;54.444;18.444;2024-03-29T03:37:51;1.73;;;1.00;;
17145;SDS011;8688;54.444;18.444;2024-03-29T03:40:19;1.37;;;1.07;;
17145;SDS011;8688;54.444;18.444;2024-03-29T03:42:47;1.43;;;0.90;;
17145;SDS011;8688;54.444;18.444;2024-03-29T03:45:15;2.27;;;1.10;;
17145;SDS011;8688;54.444;18.444;2024-03-29T03:47:42;1.20;;;0.93;;
17145;SDS011;8688;54.444;18.444;2024-03-29T03:50:13;2.80;;;1.20;;
17145;SDS011;8688;54.444;18.444;2024-03-29T03:52:39;3.17;;;1.00;;
17145;SDS011;8688;54.444;18.444;2024-03-29T03:55:08;2.47;;;1.10;;
17145;SDS011;8688;54.444;18.444;2024-03-29T03:57:34;2.13;;;1.20;;
17145;SDS011;8688;54.444;18.444;2024-03-29T04:00:02;2.00;;;0.90;;
17145;SDS011;8688;54.444;18.444;2024-03-29T04:02:30;3.23;;;1.10;;
17145;SDS011;8688;54.444;18.444;2024-03-29T04:04:57;2.40;;;1.47;;
17145;SDS011;8688;54.444;18.444;2024-03-29T04:07:26;2.03;;;1.00;;
17145;SDS011;8688;54.444;18.444;2024-03-29T04:09:54;1.37;;;1.00;;
17145;SDS011;8688;54.444;18.444;2024-03-29T04:12:23;1.67;;;1.00;;
17145;SDS011;8688;54.444;18.444;2024-03-29T04:14:49;3.63;;;0.97;;
17145;SDS011;8688;54.444;18.444;2024-03-29T04:17:17;3.03;;;1.00;;
17145;SDS011;8688;54.444;18.444;2024-03-29T04:19:45;1.70;;;0.90;;
17145;SDS011;8688;54.444;18.444;2024-03-29T04:22:13;1.77;;;1.10;;
17145;SDS011;8688;54.444;18.444;2024-03-29T04:24:41;3.70;;;1.10;;
17145;SDS011;8688;54.444;18.444;2024-03-29T04:27:10;2.57;;;0.90;;
17145;SDS011;8688;54.444;18.444;2024-03-29T04:29:37;5.80;;;1.00;;
17145;SDS011;8688;54.444;18.444;2024-03-29T04:32:05;1.77;;;1.10;;
17145;SDS011;8688;54.444;18.444;2024-03-29T04:34:33;3.43;;;1.10;;
17145;SDS011;8688;54.444;18.444;2024-03-29T04:37:01;2.33;;;1.00;;
17145;SDS011;8688;54.444;18.444;2024-03-29T04:39:29;4.17;;;1.20;;
17145;SDS011;8688;54.444;18.444;2024-03-29T04:41:59;2.13;;;1.10;;
17145;SDS011;8688;54.444;18.444;2024-03-29T04:44:27;2.07;;;1.10;;
17145;SDS011;8688;54.444;18.444;2024-03-29T04:46:55;2.30;;;1.37;;
17145;SDS011;8688;54.444;18.444;2024-03-29T04:49:23;3.27;;;1.20;;
17145;SDS011;8688;54.444;18.444;2024-03-29T04:51:57;4.53;;;1.10;;
17145;SDS011;8688;54.444;18.444;2024-03-29T04:54:27;2.57;;;1.03;;
17145;SDS011;8688;54.444;18.444;2024-03-29T04:56:55;3.33;;;1.33;;
17145;SDS011;8688;54.444;18.444;2024-03-29T04:59:25;1.40;;;0.97;;
17145;SDS011;8688;54.444;18.444;2024-03-29T05:01:53;2.27;;;1.40;;
17145;SDS011;8688;54.444;18.444;2024-03-29T05:04:22;1.47;;;1.13;;
17145;SDS011;8688;54.444;18.444;2024-03-29T05:06:52;2.27;;;1.23;;
17145;SDS011;8688;54.444;18.444;2024-03-29T05:09:23;2.90;;;1.30;;
17145;SDS011;8688;54.444;18.444;2024-03-29T05:11:52;3.07;;;1.63;;
17145;SDS011;8688;54.444;18.444;2024-03-29T05:14:20;2.07;;;1.30;;
17145;SDS011;8688;54.444;18.444;2024-03-29T05:16:50;1.73;;;1.00;;
17145;SDS011;8688;54.444;18.444;2024-03-29T05:19:18;1.73;;;1.20;;
17145;SDS011;8688;54.444;18.444;2024-03-29T05:21:46;1.70;;;1.30;;
17145;SDS011;8688;54.444;18.444;2024-03-29T05:24:14;3.40;;;1.37;;
17145;SDS011;8688;54.444;18.444;2024-03-29T05:26:42;2.07;;;1.20;;
17145;SDS011;8688;54.444;18.444;2024-03-29T05:29:11;2.13;;;1.33;;
17145;SDS011;8688;54.444;18.444;2024-03-29T05:31:39;2.22;;;1.23;;
17145;SDS011;8688;54.444;18.444;2024-03-29T05:34:08;4.90;;;1.30;;
17145;SDS011;8688;54.444;18.444;2024-03-29T05:36:36;4.00;;;1.50;;
17145;SDS011;8688;54.444;18.444;2024-03-29T05:39:04;3.20;;;1.30;;
17145;SDS011;8688;54.444;18.444;2024-03-29T05:41:33;3.97;;;1.47;;
17145;SDS011;8688;54.444;18.444;2024-03-29T05:44:03;3.30;;;1.27;;
17145;SDS011;8688;54.444;18.444;2024-03-29T05:46:31;1.98;;;1.20;;
17145;SDS011;8688;54.444;18.444;2024-03-29T05:48:59;4.23;;;1.40;;
17145;SDS011;8688;54.444;18.444;2024-03-29T05:51:28;2.50;;;1.50;;
17145;SDS011;8688;54.444;18.444;2024-03-29T05:53:57;1.43;;;1.17;;
17145;SDS011;8688;54.444;18.444;2024-03-29T05:56:25;2.50;;;1.20;;
17145;SDS011;8688;54.444;18.444;2024-03-29T05:58:55;3.17;;;1.30;;
17145;SDS011;8688;54.444;18.444;2024-03-29T06:01:23;6.10;;;1.50;;
17145;SDS011;8688;54.444;18.444;2024-03-29T06:03:50;3.55;;;1.13;;
17145;SDS011;8688;54.444;18.444;2024-03-29T06:06:21;6.50;;;1.57;;
17145;SDS011;8688;54.444;18.444;2024-03-29T06:08:52;2.40;;;1.17;;
17145;SDS011;8688;54.444;18.444;2024-03-29T06:11:19;3.80;;;1.50;;
17145;SDS011;8688;54.444;18.444;2024-03-29T06:13:47;3.35;;;1.50;;
17145;SDS011;8688;54.444;18.444;2024-03-29T06:16:32;2.03;;;1.33;;
17145;SDS011;8688;54.444;18.444;2024-03-29T06:19:17;3.20;;;1.10;;
17145;SDS011;8688;54.444;18.444;2024-03-29T06:21:45;2.80;;;1.40;;
17145;SDS011;8688;54.444;18.444;2024-03-29T06:24:15;4.00;;;1.30;;
17145;SDS011;8688;54.444;18.444;2024-03-29T06:26:42;3.73;;;1.23;;
17145;SDS011;8688;54.444;18.444;2024-03-29T06:29:10;2.77;;;1.40;;
17145;SDS011;8688;54.444;18.444;2024-03-29T06:31:39;6.57;;;1.77;;
17145;SDS011;8688;54.444;18.444;2024-03-29T06:34:07;4.38;;;1.60;;
17145;SDS011;8688;54.444;18.444;2024-03-29T06:36:35;4.33;;;1.50;;
17145;SDS011;8688;54.444;18.444;2024-03-29T06:39:04;2.42;;;1.30;;
17145;SDS011;8688;54.444;18.444;2024-03-29T06:41:33;2.40;;;1.30;;
17145;SDS011;8688;54.444;18.444;2024-03-29T06:44:01;1.70;;;1.45;;
17145;SDS011;8688;54.444;18.444;2024-03-29T06:46:29;2.60;;;1.40;;
17145;SDS011;8688;54.444;18.444;2024-03-29T06:49:01;2.13;;;1.50;;
17145;SDS011;8688;54.444;18.444;2024-03-29T06:51:29;2.67;;;1.50;;
17145;SDS011;8688;54.444;18.444;2024-03-29T06:53:58;2.57;;;1.50;;
17145;SDS011;8688;54.444;18.444;2024-03-29T06:56:25;3.50;;;1.58;;
17145;SDS011;8688;54.444;18.444;2024-03-29T06:58:56;3.28;;;1.50;;
17145;SDS011;8688;54.444;18.444;2024-03-29T07:01:25;4.00;;;1.50;;
17145;SDS011;8688;54.444;18.444;2024-03-29T07:03:53;4.80;;;1.60;;
17145;SDS011;8688;54.444;18.444;2024-03-29T07:06:20;3.35;;;1.27;;
17145;SDS011;8688;54.444;18.444;2024-03-29T07:08:51;2.33;;;1.35;;
17145;SDS011;8688;54.444;18.444;2024-03-29T07:11:18;1.80;;;1.30;;
17145;SDS011;8688;54.444;18.444;2024-03-29T07:13:46;4.35;;;1.50;;
17145;SDS011;8688;54.444;18.444;2024-03-29T07:16:16;3.28;;;1.70;;
17145;SDS011;8688;54.444;18.444;2024-03-29T07:18:44;2.35;;;1.50;;
17145;SDS011;8688;54.444;18.444;2024-03-29T07:21:12;4.00;;;1.60;;
17145;SDS011;8688;54.444;18.444;2024-03-29T07:23:40;4.88;;;2.20;;
17145;SDS011;8688;54.444;18.444;2024-03-29T07:26:08;6.68;;;1.60;;
17145;SDS011;8688;54.444;18.444;2024-03-29T07:28:37;3.25;;;1.70;;
17145;SDS011;8688;54.444;18.444;2024-03-29T07:31:06;3.47;;;1.40;;
17145;SDS011;8688;54.444;18.444;2024-03-29T07:33:36;5.65;;;1.60;;
17145;SDS011;8688;54.444;18.444;2024-03-29T07:36:04;4.95;;;1.55;;
17145;SDS011;8688;54.444;18.444;2024-03-29T07:41:57;2.65;;;1.40;;
17145;SDS011;8688;54.444;18.444;2024-03-29T07:44:24;1.60;;;1.13;;
17145;SDS011;8688;54.444;18.444;2024-03-29T07:46:53;3.63;;;1.40;;
17145;SDS011;8688;54.444;18.444;2024-03-29T07:49:24;5.93;;;1.60;;
17145;SDS011;8688;54.444;18.444;2024-03-29T07:51:53;5.13;;;1.40;;
17145;SDS011;8688;54.444;18.444;2024-03-29T07:54:22;2.95;;;1.25;;
17145;SDS011;8688;54.444;18.444;2024-03-29T07:56:50;3.13;;;1.40;;
17145;SDS011;8688;54.444;18.444;2024-03-29T07:59:18;3.53;;;1.40;;
17145;SDS011;8688;54.444;18.444;2024-03-29T08:01:47;1.85;;;1.30;;
17145;SDS011;8688;54.444;18.444;2024-03-29T08:04:15;4.13;;;1.02;;
17145;SDS011;8688;54.444;18.444;2024-03-29T08:06:47;2.05;;;1.15;;
17145;SDS011;8688;54.444;18.444;2024-03-29T08:09:18;3.72;;;1.50;;
17145;SDS011;8688;54.444;18.444;2024-03-29T08:11:46;1.30;;;1.00;;
17145;SDS011;8688;54.444;18.444;2024-03-29T08:14:14;1.67;;;0.90;;
17145;SDS011;8688;54.444;18.444;2024-03-29T08:16:42;2.58;;;1.30;;
17145;SDS011;8688;54.444;18.444;2024-03-29T08:19:11;3.60;;;1.20;;
17145;SDS011;8688;54.444;18.444;2024-03-29T08:21:39;5.43;;;1.17;;
17145;SDS011;8688;54.444;18.444;2024-03-29T08:24:09;2.30;;;1.20;;
17145;SDS011;8688;54.444;18.444;2024-03-29T08:26:37;4.20;;;1.42;;
17145;SDS011;8688;54.444;18.444;2024-03-29T08:29:05;4.30;;;1.48;;
17145;SDS011;8688;54.444;18.444;2024-03-29T08:31:33;5.32;;;1.23;;
17145;SDS011;8688;54.444;18.444;2024-03-29T08:34:02;1.60;;;1.00;;
17145;SDS011;8688;54.444;18.444;2024-03-29T08:36:30;2.55;;;1.05;;
17145;SDS011;8688;54.444;18.444;2024-03-29T08:38:56;2.42;;;1.17;;
17145;SDS011;8688;54.444;18.444;2024-03-29T08:41:28;4.90;;;1.30;;
17145;SDS011;8688;54.444;18.444;2024-03-29T08:43:56;2.55;;;1.15;;
17145;SDS011;8688;54.444;18.444;2024-03-29T08:46:24;5.00;;;1.10;;
17145;SDS011;8688;54.444;18.444;2024-03-29T08:48:53;5.18;;;1.45;;
17145;SDS011;8688;54.444;18.444;2024-03-29T08:51:21;4.40;;;1.15;;
17145;SDS011;8688;54.444;18.444;2024-03-29T08:53:50;2.90;;;1.10;;
17145;SDS011;8688;54.444;18.444;2024-03-29T08:56:18;4.30;;;1.10;;
17145;SDS011;8688;54.444;18.444;2024-03-29T08:58:49;2.10;;;1.10;;
17145;SDS011;8688;54.444;18.444;2024-03-29T09:01:17;5.40;;;1.33;;
17145;SDS011;8688;54.444;18.444;2024-03-29T09:03:45;5.40;;;1.17;;
17145;SDS011;8688;54.444;18.444;2024-03-29T09:06:13;5.55;;;1.25;;
17145;SDS011;8688;54.444;18.444;2024-03-29T09:08:42;5.07;;;1.33;;
17145;SDS011;8688;54.444;18.444;2024-03-29T09:11:10;2.33;;;1.13;;
17145;SDS011;8688;54.444;18.444;2024-03-29T09:13:38;3.20;;;0.98;;
17145;SDS011;8688;54.444;18.444;2024-03-29T09:16:08;2.60;;;0.98;;
17145;SDS011;8688;54.444;18.444;2024-03-29T09:18:36;3.47;;;1.20;;
17145;SDS011;8688;54.444;18.444;2024-03-29T09:21:04;2.50;;;1.00;;
17145;SDS011;8688;54.444;18.444;2024-03-29T09:23:34;2.72;;;0.80;;
17145;SDS011;8688;54.444;18.444;2024-03-29T09:26:04;2.53;;;1.13;;
17145;SDS011;8688;54.444;18.444;2024-03-29T09:28:32;3.42;;;1.20;;
17145;SDS011;8688;54.444;18.444;2024-03-29T09:31:03;5.03;;;1.10;;
17145;SDS011;8688;54.444;18.444;2024-03-29T09:33:32;4.78;;;1.10;;
17145;SDS011;8688;54.444;18.444;2024-03-29T09:36:00;3.58;;;1.05;;
17145;SDS011;8688;54.444;18.444;2024-03-29T09:38:29;5.00;;;1.23;;
17145;SDS011;8688;54.444;18.444;2024-03-29T09:40:59;4.05;;;1.30;;
17145;SDS011;8688;54.444;18.444;2024-03-29T09:43:37;2.58;;;0.85;;
17145;SDS011;8688;54.444;18.444;2024-03-29T09:46:08;2.85;;;1.00;;
17145;SDS011;8688;54.444;18.444;2024-03-29T09:48:37;4.72;;;1.13;;
17145;SDS011;8688;54.444;18.444;2024-03-29T09:51:08;2.28;;;0.98;;
17145;SDS011;8688;54.444;18.444;2024-03-29T09:53:41;1.70;;;0.90;;
17145;SDS011;8688;54.444;18.444;2024-03-29T09:56:14;1.60;;;0.80;;
17145;SDS011;8688;54.444;18.444;2024-03-29T09:58:43;2.42;;;0.73;;
17145;SDS011;8688;54.444;18.444;2024-03-29T10:01:11;4.28;;;0.95;;
17145;SDS011;8688;54.444;18.444;2024-03-29T10:03:42;2.42;;;0.88;;
17145;SDS011;8688;54.444;18.444;2024-03-29T10:06:11;2.58;;;0.93;;
17145;SDS011;8688;54.444;18.444;2024-03-29T10:08:40;2.78;;;1.00;;
17145;SDS011;8688;54.444;18.444;2024-03-29T10:11:09;1.33;;;0.73;;
17145;SDS011;8688;54.444;18.444;2024-03-29T10:13:38;3.67;;;1.00;;
17145;SDS011;8688;54.444;18.444;2024-03-29T10:16:06;6.55;;;1.10;;
17145;SDS011;8688;54.444;18.444;2024-03-29T10:18:36;2.95;;;1.20;;
17145;SDS011;8688;54.444;18.444;2024-03-29T10:21:06;1.35;;;0.80;;
17145;SDS011;8688;54.444;18.444;2024-03-29T10:23:36;4.97;;;1.02;;
17145;SDS011;8688;54.444;18.444;2024-03-29T10:26:08;1.67;;;0.98;;
17145;SDS011;8688;54.444;18.444;2024-03-29T10:28:38;3.88;;;1.02;;
17145;SDS011;8688;54.444;18.444;2024-03-29T10:31:07;2.55;;;1.00;;
17145;SDS011;8688;54.444;18.444;2024-03-29T10:33:37;2.67;;;0.98;;
17145;SDS011;8688;54.444;18.444;2024-03-29T10:36:07;3.58;;;1.00;;
17145;SDS011;8688;54.444;18.444;2024-03-29T10:38:37;3.92;;;1.10;;
17145;SDS011;8688;54.444;18.444;2024-03-29T10:41:05;4.18;;;0.98;;
17145;SDS011;8688;54.444;18.444;2024-03-29T10:43:35;2.85;;;1.00;;
17145;SDS011;8688;54.444;18.444;2024-03-29T10:46:05;2.55;;;1.00;;
17145;SDS011;8688;54.444;18.444;2024-03-29T10:48:35;2.25;;;1.10;;
17145;SDS011;8688;54.444;18.444;2024-03-29T10:51:04;3.97;;;1.20;;
17145;SDS011;8688;54.444;18.444;2024-03-29T10:53:34;1.95;;;0.93;;
17145;SDS011;8688;54.444;18.444;2024-03-29T10:56:12;3.03;;;1.38;;
17145;SDS011;8688;54.444;18.444;2024-03-29T10:58:40;5.10;;;1.00;;
17145;SDS011;8688;54.444;18.444;2024-03-29T11:01:16;2.50;;;1.10;;
17145;SDS011;8688;54.444;18.444;2024-03-29T11:03:48;2.58;;;0.80;;
17145;SDS011;8688;54.444;18.444;2024-03-29T11:06:25;3.50;;;0.80;;
17145;SDS011;8688;54.444;18.444;2024-03-29T11:08:55;2.58;;;0.90;;
17145;SDS011;8688;54.444;18.444;2024-03-29T11:11:26;2.85;;;0.65;;
17145;SDS011;8688;54.444;18.444;2024-03-29T11:13:58;2.10;;;0.80;;
17145;SDS011;8688;54.444;18.444;2024-03-29T11:16:30;2.88;;;0.88;;
17145;SDS011;8688;54.444;18.444;2024-03-29T11:18:58;4.85;;;1.00;;
17145;SDS011;8688;54.444;18.444;2024-03-29T11:21:32;1.98;;;0.73;;
17145;SDS011;8688;54.444;18.444;2024-03-29T11:24:00;2.53;;;0.75;;
17145;SDS011;8688;54.444;18.444;2024-03-29T11:26:31;3.30;;;0.90;;
17145;SDS011;8688;54.444;18.444;2024-03-29T11:29:00;5.05;;;0.90;;
17145;SDS011;8688;54.444;18.444;2024-03-29T11:31:28;2.08;;;0.80;;
17145;SDS011;8688;54.444;18.444;2024-03-29T11:33:58;3.10;;;0.77;;
17145;SDS011;8688;54.444;18.444;2024-03-29T11:36:28;1.77;;;0.80;;
17145;SDS011;8688;54.444;18.444;2024-03-29T11:38:59;2.45;;;1.02;;
17145;SDS011;8688;54.444;18.444;2024-03-29T11:41:27;1.98;;;0.82;;
17145;SDS011;8688;54.444;18.444;2024-03-29T11:43:57;1.55;;;0.90;;
17145;SDS011;8688;54.444;18.444;2024-03-29T11:46:26;3.47;;;0.98;;
17145;SDS011;8688;54.444;18.444;2024-03-29T11:48:58;2.72;;;0.80;;
17145;SDS011;8688;54.444;18.444;2024-03-29T11:51:26;2.83;;;0.70;;
17145;SDS011;8688;54.444;18.444;2024-03-29T11:53:54;4.03;;;0.80;;
17145;SDS011;8688;54.444;18.444;2024-03-29T11:56:24;3.20;;;0.88;;
17145;SDS011;8688;54.444;18.444;2024-03-29T11:58:52;1.67;;;0.60;;
17145;SDS011;8688;54.444;18.444;2024-03-29T12:01:25;1.95;;;0.80;;
17145;SDS011;8688;54.444;18.444;2024-03-29T12:03:54;1.63;;;0.95;;
17145;SDS011;8688;54.444;18.444;2024-03-29T12:06:23;2.60;;;0.90;;
17145;SDS011;8688;54.444;18.444;2024-03-29T12:08:51;2.03;;;0.80;;
17145;SDS011;8688;54.444;18.444;2024-03-29T12:11:21;2.53;;;0.82;;
17145;SDS011;8688;54.444;18.444;2024-03-29T12:13:53;2.47;;;1.00;;
17145;SDS011;8688;54.444;18.444;2024-03-29T12:16:21;3.58;;;0.82;;
17145;SDS011;8688;54.444;18.444;2024-03-29T12:18:49;1.88;;;0.70;;
17145;SDS011;8688;54.444;18.444;2024-03-29T12:21:17;3.65;;;1.42;;
17145;SDS011;8688;54.444;18.444;2024-03-29T12:23:48;2.17;;;0.90;;
17145;SDS011;8688;54.444;18.444;2024-03-29T12:26:17;3.38;;;1.08;;
17145;SDS011;8688;54.444;18.444;2024-03-29T12:28:49;3.33;;;1.00;;
17145;SDS011;8688;54.444;18.444;2024-03-29T12:31:20;4.50;;;1.20;;
17145;SDS011;8688;54.444;18.444;2024-03-29T12:33:52;4.38;;;1.35;;
17145;SDS011;8688;54.444;18.444;2024-03-29T12:36:23;4.05;;;1.10;;
17145;SDS011;8688;54.444;18.444;2024-03-29T12:38:53;5.47;;;1.17;;
17145;SDS011;8688;54.444;18.444;2024-03-29T12:41:23;4.15;;;0.90;;
17145;SDS011;8688;54.444;18.444;2024-03-29T12:43:54;3.28;;;1.15;;
17145;SDS011;8688;54.444;18.444;2024-03-29T12:46:23;2.47;;;0.93;;
17145;SDS011;8688;54.444;18.444;2024-03-29T12:48:57;2.55;;;1.10;;
17145;SDS011;8688;54.444;18.444;2024-03-29T12:51:26;4.13;;;1.20;;
17145;SDS011;8688;54.444;18.444;2024-03-29T12:53:55;2.60;;;0.93;;
17145;SDS011;8688;54.444;18.444;2024-03-29T12:56:29;2.67;;;1.13;;
17145;SDS011;8688;54.444;18.444;2024-03-29T12:58:58;2.00;;;1.10;;
17145;SDS011;8688;54.444;18.444;2024-03-29T13:01:26;1.98;;;0.93;;
17145;SDS011;8688;54.444;18.444;2024-03-29T13:03:54;2.35;;;1.00;;
17145;SDS011;8688;54.444;18.444;2024-03-29T13:06:22;3.10;;;0.98;;
17145;SDS011;8688;54.444;18.444;2024-03-29T13:08:51;5.40;;;1.10;;
17145;SDS011;8688;54.444;18.444;2024-03-29T13:11:22;2.10;;;0.93;;
17145;SDS011;8688;54.444;18.444;2024-03-29T13:13:50;1.65;;;0.75;;
17145;SDS011;8688;54.444;18.444;2024-03-29T13:16:21;3.85;;;0.93;;
17145;SDS011;8688;54.444;18.444;2024-03-29T13:18:50;2.10;;;0.85;;
17145;SDS011;8688;54.444;18.444;2024-03-29T13:21:19;1.60;;;0.75;;
17145;SDS011;8688;54.444;18.444;2024-03-29T13:23:47;3.05;;;0.80;;
17145;SDS011;8688;54.444;18.444;2024-03-29T13:26:15;5.68;;;0.95;;
17145;SDS011;8688;54.444;18.444;2024-03-29T13:28:43;1.83;;;0.70;;
17145;SDS011;8688;54.444;18.444;2024-03-29T13:31:12;3.17;;;0.90;;
17145;SDS011;8688;54.444;18.444;2024-03-29T13:33:42;2.25;;;0.70;;
17145;SDS011;8688;54.444;18.444;2024-03-29T13:36:10;4.38;;;0.80;;
17145;SDS011;8688;54.444;18.444;2024-03-29T13:38:38;3.72;;;0.80;;
17145;SDS011;8688;54.444;18.444;2024-03-29T13:41:13;5.80;;;1.00;;
17145;SDS011;8688;54.444;18.444;2024-03-29T13:43:45;4.38;;;0.80;;
17145;SDS011;8688;54.444;18.444;2024-03-29T13:46:15;1.60;;;0.70;;
17145;SDS011;8688;54.444;18.444;2024-03-29T13:48:44;2.15;;;0.75;;
17145;SDS011;8688;54.444;18.444;2024-03-29T13:51:12;4.25;;;1.00;;
17145;SDS011;8688;54.444;18.444;2024-03-29T13:53:41;2.00;;;0.90;;
17145;SDS011;8688;54.444;18.444;2024-03-29T13:56:09;2.63;;;0.80;;
17145;SDS011;8688;54.444;18.444;2024-03-29T13:58:37;2.72;;;0.90;;
17145;SDS011;8688;54.444;18.444;2024-03-29T14:01:06;2.22;;;0.85;;
17145;SDS011;8688;54.444;18.444;2024-03-29T14:03:34;3.33;;;0.90;;
17145;SDS011;8688;54.444;18.444;2024-03-29T14:06:05;1.63;;;0.80;;
17145;SDS011;8688;54.444;18.444;2024-03-29T14:08:33;3.40;;;0.90;;
17145;SDS011;8688;54.444;18.444;2024-03-29T14:11:01;2.05;;;0.90;;
17145;SDS011;8688;54.444;18.444;2024-03-29T14:13:30;1.50;;;0.70;;
17145;SDS011;8688;54.444;18.444;2024-03-29T14:16:00;2.40;;;1.00;;
17145;SDS011;8688;54.444;18.444;2024-03-29T14:18:29;2.10;;;0.90;;
17145;SDS011;8688;54.444;18.444;2024-03-29T14:20:57;2.28;;;0.70;;
17145;SDS011;8688;54.444;18.444;2024-03-29T14:23:26;3.88;;;0.85;;
17145;SDS011;8688;54.444;18.444;2024-03-29T14:25:55;1.75;;;0.80;;
17145;SDS011;8688;54.444;18.444;2024-03-29T14:28:24;2.08;;;0.80;;
17145;SDS011;8688;54.444;18.444;2024-03-29T14:30:52;2.60;;;0.80;;
17145;SDS011;8688;54.444;18.444;2024-03-29T14:33:21;4.90;;;0.90;;
17145;SDS011;8688;54.444;18.444;2024-03-29T14:35:49;2.35;;;0.77;;
17145;SDS011;8688;54.444;18.444;2024-03-29T14:38:18;4.32;;;1.17;;
17145;SDS011;8688;54.444;18.444;2024-03-29T14:40:48;3.60;;;1.10;;
17145;SDS011;8688;54.444;18.444;2024-03-29T14:43:16;3.92;;;1.00;;
17145;SDS011;8688;54.444;18.444;2024-03-29T14:45:44;4.18;;;1.20;;
17145;SDS011;8688;54.444;18.444;2024-03-29T14:48:14;3.22;;;1.10;;
17145;SDS011;8688;54.444;18.444;2024-03-29T14:50:43;3.50;;;1.00;;
17145;SDS011;8688;54.444;18.444;2024-03-29T14:53:11;2.70;;;1.27;;
17145;SDS011;8688;54.444;18.444;2024-03-29T14:55:39;4.47;;;1.27;;
17145;SDS011;8688;54.444;18.444;2024-03-29T14:58:09;2.78;;;1.10;;
17145;SDS011;8688;54.444;18.444;2024-03-29T15:00:37;3.58;;;1.10;;
17145;SDS011;8688;54.444;18.444;2024-03-29T15:03:05;4.18;;;1.23;;
17145;SDS011;8688;54.444;18.444;2024-03-29T15:05:33;2.63;;;1.27;;